CYEG

Edmonton International Airport

Edmonton, Alberta, Canada
METAR CYEG 210500Z 18004KT 12SM SCT170 BKN240 09/07 A3021 RMK AS4CI3 FU SLP243
Observed Flight Rules
Aug-21 @ 05:00 UTC (19 hours ago) Visual Flight Rules
Wind Visibility Clouds
180° at 4 knots 12 miles
  • Scattered at 17,000' AGL
  • Broken at 24,000' AGL
Temperatures Readings
Current 9°C / 48°F
Dewpoint 7°C / 45°F
Humidity 87%
Altimeter 30.21" Hg
Pressure 1024.3 hPa
Elevation 723
METAR CYEG 210500Z 18004KT 12SM SCT170 BKN240 09/07 A3021 RMK AS4CI3 FU SLP243
Observed Flight Rules
Aug-21 @ 05:00 UTC
(19 hours ago)
VFR
Wind Visibility
180° at 4 knots 12 miles
Clouds
  • Scattered at 17,000' AGL
  • Broken at 24,000' AGL
Temperature Dewpoint
9°C / 48°F 7°C / 45°F
Humidity Altimeter Pressure
87% 30.21" Hg 1024.3 hPa